Time;durP1;ratioP1;P1;durP2;ratioP2;P2;SDS_P1;SDS_P2;PMS_P1;PMS_P2;Temp;Humidity;BMP_temperature;BMP_pressure;BME280_temperature;BME280_humidity;BME280_pressure;Samples;Min_cycle;Max_cycle;Signal;HPM_P1;HPM_P2
2021/08/10 00:02:19;;;;;;;4.68;3.53;;;22.40;66.60;;;;;;5034131;28;20037;-80
2021/08/10 00:04:44;;;;;;;5.30;3.47;;;22.40;66.70;;;;;;5034637;28;20026;-80
2021/08/10 00:07:10;;;;;;;5.15;3.50;;;22.40;66.70;;;;;;5033143;28;20033;-80
2021/08/10 00:09:36;;;;;;;4.43;3.10;;;22.30;66.90;;;;;;5033788;28;20056;-81
2021/08/10 00:12:02;;;;;;;5.35;3.63;;;22.30;67.00;;;;;;5034078;28;20459;-81
2021/08/10 00:14:27;;;;;;;5.07;3.30;;;22.30;67.10;;;;;;5047863;28;20041;-80
2021/08/10 00:16:53;;;;;;;4.90;3.58;;;22.30;67.40;;;;;;5036194;28;20024;-80
2021/08/10 00:19:19;;;;;;;6.13;3.50;;;22.30;67.50;;;;;;5054511;28;20028;-80
2021/08/10 00:21:45;;;;;;;5.75;3.67;;;22.30;67.60;;;;;;5054361;28;20514;-81
2021/08/10 00:24:10;;;;;;;4.38;3.58;;;22.30;67.60;;;;;;5036214;28;20033;-81
2021/08/10 00:26:36;;;;;;;4.60;3.42;;;22.30;67.80;;;;;;5053847;28;20037;-82
2021/08/10 00:29:03;;;;;;;4.90;3.60;;;22.30;68.00;;;;;;5054426;28;20459;-81
2021/08/10 00:31:29;;;;;;;4.65;3.72;;;22.30;68.10;;;;;;5036263;28;20029;-81
2021/08/10 00:33:56;;;;;;;4.97;3.60;;;22.20;68.30;;;;;;5053708;28;20032;-81
2021/08/10 00:36:22;;;;;;;6.50;3.88;;;22.20;68.70;;;;;;5053905;28;20371;-82
2021/08/10 00:38:49;;;;;;;5.90;3.67;;;22.20;69.00;;;;;;5053873;28;20032;-81
2021/08/10 00:41:15;;;;;;;4.72;3.88;;;22.20;69.10;;;;;;5035966;28;20041;-82
2021/08/10 00:43:43;;;;;;;4.90;4.03;;;22.20;69.30;;;;;;5035921;28;20040;-81
2021/08/10 00:46:11;;;;;;;5.93;4.35;;;22.10;69.60;;;;;;5053529;28;20422;-81
2021/08/10 00:48:37;;;;;;;5.45;4.30;;;22.10;70.00;;;;;;5053730;28;20036;-82
2021/08/10 00:51:08;;;;;;;5.68;3.95;;;22.10;70.20;;;;;;5054324;28;20028;-81
2021/08/10 00:53:35;;;;;;;8.00;4.50;;;22.00;70.80;;;;;;5035863;28;20028;-81
2021/08/10 00:56:05;;;;;;;5.82;4.28;;;22.00;70.30;;;;;;5053439;28;20105;-81
2021/08/10 00:58:31;;;;;;;6.03;4.30;;;22.00;70.80;;;;;;5054161;28;20025;-81
2021/08/10 01:00:58;;;;;;;7.05;4.97;;;21.90;70.90;;;;;;5053789;28;20124;-81
2021/08/10 01:03:23;;;;;;;6.95;5.10;;;21.90;71.20;;;;;;5035861;28;20059;-81
2021/08/10 01:05:50;;;;;;;6.38;4.75;;;21.80;71.30;;;;;;5035731;28;20449;-81
2021/08/10 01:08:33;;;;;;;5.72;4.75;;;21.80;71.60;;;;;;5053639;28;20060;-82
2021/08/10 01:11:23;;;;;;;5.85;4.53;;;21.80;72.20;;;;;;5053761;28;20029;-81
2021/08/10 01:13:55;;;;;;;5.45;4.57;;;21.70;73.80;;;;;;5053493;28;20049;-81
2021/08/10 01:16:44;;;;;;;6.60;4.63;;;21.70;74.10;;;;;;5054059;28;20021;-81
2021/08/10 01:20:02;;;;;;;7.25;5.10;;;21.60;75.30;;;;;;5036618;28;20025;-81
2021/08/10 01:22:29;;;;;;;6.97;4.68;;;21.60;76.00;;;;;;4985512;28;20045;-81
2021/08/10 01:25:06;;;;;;;6.25;4.80;;;21.60;73.40;;;;;;5056853;28;20025;-81
2021/08/10 01:27:38;;;;;;;6.78;5.55;;;21.60;74.60;;;;;;5057250;28;20029;-84
2021/08/10 01:30:12;;;;;;;6.47;4.90;;;21.50;74.50;;;;;;5057191;28;20025;-83
2021/08/10 01:32:42;;;;;;;6.25;4.60;;;21.50;75.40;;;;;;5039764;28;20445;-83
2021/08/10 01:35:09;;;;;;;5.72;4.60;;;21.50;74.50;;;;;;5056778;28;20029;-82
2021/08/10 01:37:37;;;;;;;6.15;4.53;;;21.50;75.00;;;;;;5057220;28;20029;-80
2021/08/10 01:40:07;;;;;;;6.05;4.82;;;21.40;74.80;;;;;;5039039;28;20368;-80
2021/08/10 01:42:35;;;;;;;7.60;4.82;;;21.40;75.40;;;;;;5039514;28;20049;-81
2021/08/10 01:45:02;;;;;;;6.68;5.40;;;21.40;75.60;;;;;;5039231;28;20041;-81
2021/08/10 01:47:30;;;;;;;8.32;5.18;;;21.40;75.90;;;;;;5039354;28;20075;-81
2021/08/10 01:49:59;;;;;;;7.68;5.68;;;21.30;75.70;;;;;;5039362;28;20387;-82
2021/08/10 01:52:26;;;;;;;7.22;5.55;;;21.30;76.00;;;;;;5039055;28;20028;-82
2021/08/10 01:54:53;;;;;;;8.13;6.00;;;21.30;76.30;;;;;;5038777;28;20074;-82
2021/08/10 01:57:19;;;;;;;6.57;5.05;;;21.30;76.40;;;;;;5056791;28;20031;-81
2021/08/10 01:59:51;;;;;;;7.07;5.32;;;21.30;76.50;;;;;;5056902;28;20025;-81
2021/08/10 02:02:17;;;;;;;6.43;5.20;;;21.30;77.60;;;;;;5056168;28;20127;-81
2021/08/10 02:04:44;;;;;;;6.90;5.05;;;21.20;76.70;;;;;;5038674;28;20109;-81
2021/08/10 02:07:11;;;;;;;5.97;4.95;;;21.20;77.00;;;;;;5039210;28;20056;-82
2021/08/10 02:09:38;;;;;;;6.65;5.03;;;21.20;77.00;;;;;;5056428;28;20025;-81
2021/08/10 02:12:04;;;;;;;5.32;4.18;;;21.20;77.00;;;;;;5056478;28;20033;-81
2021/08/10 02:14:31;;;;;;;5.93;4.55;;;21.20;77.10;;;;;;5038292;28;20057;-81
2021/08/10 02:17:01;;;;;;;5.22;4.70;;;21.20;77.30;;;;;;5056744;28;20036;-81
2021/08/10 02:19:28;;;;;;;5.38;4.60;;;21.10;77.20;;;;;;5038539;28;20033;-81
2021/08/10 02:22:02;;;;;;;8.13;4.45;;;21.10;77.00;;;;;;5056222;28;20033;-81
2021/08/10 02:24:34;;;;;;;5.35;4.65;;;21.20;77.20;;;;;;5056040;28;20075;-81
2021/08/10 02:27:05;;;;;;;5.13;4.40;;;21.10;77.00;;;;;;5056027;28;20032;-81
2021/08/10 02:29:42;;;;;;;5.75;4.80;;;21.10;76.90;;;;;;5056377;28;20092;-80
2021/08/10 02:32:10;;;;;;;8.10;4.85;;;21.10;78.80;;;;;;5038027;28;20352;-81
2021/08/10 02:34:38;;;;;;;5.82;4.60;;;21.10;77.20;;;;;;5038248;28;20032;-81
2021/08/10 02:37:06;;;;;;;6.68;4.95;;;21.20;77.20;;;;;;5055732;28;20435;-82
2021/08/10 02:39:36;;;;;;;5.63;4.93;;;21.10;77.30;;;;;;5038205;28;20035;-81
2021/08/10 02:42:02;;;;;;;5.97;4.90;;;21.10;77.40;;;;;;5038212;28;20132;-81
2021/08/10 02:44:29;;;;;;;5.20;4.68;;;21.10;77.30;;;;;;5056115;28;20258;-81
2021/08/10 02:46:55;;;;;;;5.47;4.40;;;21.10;77.20;;;;;;5038205;28;20380;-82
2021/08/10 02:49:20;;;;;;;7.43;5.32;;;21.10;77.30;;;;;;5056450;28;20033;-81
2021/08/10 02:51:46;;;;;;;7.82;5.25;;;21.10;77.70;;;;;;5038000;28;20037;-81
2021/08/10 02:54:13;;;;;;;5.88;4.88;;;21.10;77.90;;;;;;5056314;28;20021;-81
2021/08/10 02:56:48;;;;;;;5.88;4.90;;;21.10;78.00;;;;;;5037736;28;20032;-81
2021/08/10 02:59:29;;;;;;;6.63;5.22;;;21.10;79.00;;;;;;5038395;28;20025;-81
2021/08/10 03:02:21;;;;;;;5.88;4.78;;;21.10;79.40;;;;;;5055754;28;20352;-81
2021/08/10 03:04:58;;;;;;;5.80;5.20;;;21.10;79.00;;;;;;5038041;28;20387;-81
2021/08/10 03:07:26;;;;;;;5.88;5.20;;;21.00;78.80;;;;;;5037716;28;20112;-81
2021/08/10 03:09:57;;;;;;;6.97;4.97;;;21.00;78.80;;;;;;5037802;28;20021;-81
2021/08/10 03:12:25;;;;;;;6.25;5.22;;;21.00;79.00;;;;;;5038562;28;20070;-81
2021/08/10 03:14:54;;;;;;;6.88;5.68;;;21.00;79.00;;;;;;5034242;28;20060;-81
2021/08/10 03:17:21;;;;;;;6.80;5.70;;;21.00;79.20;;;;;;5035809;28;20025;-81
2021/08/10 03:19:49;;;;;;;7.90;5.28;;;21.00;79.90;;;;;;5035158;28;20083;-80
2021/08/10 03:22:15;;;;;;;7.85;4.90;;;21.00;79.60;;;;;;5035370;28;20091;-80
2021/08/10 03:24:44;;;;;;;6.90;5.65;;;21.00;79.80;;;;;;5035436;28;20089;-81
2021/08/10 03:27:11;;;;;;;8.38;5.55;;;21.00;80.10;;;;;;5035571;28;20116;-81
2021/08/10 03:29:38;;;;;;;6.22;5.20;;;21.00;80.30;;;;;;5034109;28;20044;-81
2021/08/10 03:32:05;;;;;;;6.95;6.00;;;21.00;80.50;;;;;;5034027;28;20034;-81
2021/08/10 03:34:32;;;;;;;7.35;5.90;;;21.10;80.80;;;;;;5033798;28;20053;-81
2021/08/10 03:36:59;;;;;;;7.15;5.32;;;21.10;80.80;;;;;;5033753;28;20026;-81
2021/08/10 03:39:25;;;;;;;6.63;5.30;;;21.10;80.80;;;;;;5035186;28;20100;-82
2021/08/10 03:41:51;;;;;;;7.45;5.88;;;21.10;80.90;;;;;;5033519;28;20065;-82
2021/08/10 03:44:17;;;;;;;7.32;5.80;;;21.10;81.30;;;;;;5033248;28;20036;-82
2021/08/10 03:46:44;;;;;;;7.38;5.80;;;21.20;81.40;;;;;;5034341;28;20029;-81
2021/08/10 03:49:12;;;;;;;6.70;6.00;;;21.30;81.30;;;;;;5035089;28;20029;-82
2021/08/10 03:51:38;;;;;;;7.90;6.70;;;21.30;81.40;;;;;;5034369;28;20025;-82
2021/08/10 03:54:05;;;;;;;7.25;6.30;;;21.30;81.50;;;;;;5034842;28;20032;-82
2021/08/10 03:56:33;;;;;;;7.35;5.78;;;21.30;81.80;;;;;;5033377;28;20030;-82
2021/08/10 03:59:00;;;;;;;9.30;6.68;;;21.40;81.60;;;;;;5033358;28;20083;-83
2021/08/10 04:01:27;;;;;;;7.47;6.10;;;21.40;81.60;;;;;;5033246;28;20064;-82
2021/08/10 04:03:56;;;;;;;9.50;6.60;;;21.50;81.70;;;;;;5033395;28;20028;-82
2021/08/10 04:06:24;;;;;;;8.48;6.07;;;21.50;81.90;;;;;;5034699;28;20017;-83
2021/08/10 04:08:50;;;;;;;6.65;5.80;;;21.60;81.50;;;;;;5034798;28;20017;-83
2021/08/10 04:11:18;;;;;;;7.05;5.75;;;21.70;81.30;;;;;;5033123;28;20036;-83
2021/08/10 04:13:45;;;;;;;8.77;6.18;;;21.70;81.30;;;;;;5041408;28;20099;-82
2021/08/10 04:16:15;;;;;;;6.78;6.07;;;21.80;81.30;;;;;;5036961;28;20439;-82
2021/08/10 04:18:42;;;;;;;6.38;5.50;;;21.80;81.40;;;;;;5036530;28;20112;-83
2021/08/10 04:21:08;;;;;;;7.38;5.90;;;21.90;81.20;;;;;;5035733;28;20041;-83
2021/08/10 04:23:34;;;;;;;6.70;5.88;;;21.90;81.10;;;;;;5036332;28;20017;-83
2021/08/10 04:26:00;;;;;;;6.80;6.00;;;22.00;81.00;;;;;;5053604;28;20075;-82
2021/08/10 04:28:26;;;;;;;8.18;6.70;;;22.00;81.10;;;;;;5036094;28;20032;-83
2021/08/10 04:30:52;;;;;;;6.60;5.85;;;22.10;80.90;;;;;;5036130;28;20033;-84
2021/08/10 04:33:17;;;;;;;7.47;5.72;;;22.10;80.90;;;;;;5054125;28;20082;-85
2021/08/10 04:35:43;;;;;;;6.43;5.32;;;22.10;80.90;;;;;;5053934;28;20025;-83
2021/08/10 04:38:09;;;;;;;6.30;5.60;;;22.20;80.80;;;;;;5054022;28;20021;-85
2021/08/10 04:40:35;;;;;;;7.95;6.20;;;22.30;80.60;;;;;;5035855;28;20068;-83
2021/08/10 04:43:01;;;;;;;7.03;5.75;;;22.30;80.30;;;;;;5054391;28;20102;-83
2021/08/10 04:45:30;;;;;;;7.68;6.15;;;22.40;80.20;;;;;;5054139;28;20032;-83
2021/08/10 04:47:56;;;;;;;7.03;6.07;;;22.40;80.00;;;;;;5036486;28;20059;-82
2021/08/10 04:50:22;;;;;;;5.93;5.13;;;22.50;79.90;;;;;;5053431;28;20114;-83
2021/08/10 04:52:48;;;;;;;6.63;5.60;;;22.50;79.90;;;;;;5035830;28;20017;-81
2021/08/10 04:55:14;;;;;;;6.70;5.65;;;22.60;79.70;;;;;;5035744;28;20125;-82
2021/08/10 04:57:39;;;;;;;7.25;5.82;;;22.60;79.60;;;;;;5053816;28;20033;-82
2021/08/10 05:00:06;;;;;;;8.13;5.53;;;22.70;79.60;;;;;;5036005;28;20029;-82
2021/08/10 05:02:32;;;;;;;6.40;5.78;;;22.80;79.40;;;;;;5035766;28;20040;-84
2021/08/10 05:04:57;;;;;;;5.90;5.28;;;22.80;79.10;;;;;;5036017;28;20123;-82
2021/08/10 05:07:23;;;;;;;7.22;6.00;;;22.80;79.00;;;;;;5036224;28;20395;-83
2021/08/10 05:09:49;;;;;;;7.03;5.75;;;22.80;78.90;;;;;;5035761;28;20456;-83
2021/08/10 05:12:14;;;;;;;6.50;5.72;;;22.90;78.80;;;;;;5053005;28;20079;-83
2021/08/10 05:14:41;;;;;;;6.60;5.88;;;22.90;78.60;;;;;;5053062;28;20076;-82
2021/08/10 05:17:06;;;;;;;6.45;5.60;;;23.00;78.60;;;;;;5035759;28;20033;-82
2021/08/10 05:19:32;;;;;;;7.25;6.28;;;23.00;78.40;;;;;;5036144;28;20452;-85
2021/08/10 05:21:58;;;;;;;7.95;6.43;;;23.10;78.30;;;;;;5053424;28;20442;-86
2021/08/10 05:24:24;;;;;;;9.48;6.10;;;23.10;78.20;;;;;;5053536;28;20036;-84
2021/08/10 05:26:49;;;;;;;31.08;25.38;;;23.10;78.10;;;;;;5035240;28;20029;-85
2021/08/10 05:29:15;;;;;;;44.88;33.97;;;23.10;78.00;;;;;;5053409;28;20036;-85
2021/08/10 05:31:42;;;;;;;21.08;17.35;;;23.20;78.00;;;;;;5035474;28;20182;-83
2021/08/10 05:34:08;;;;;;;14.25;12.02;;;23.30;77.80;;;;;;5053256;28;20021;-81
2021/08/10 05:36:33;;;;;;;10.23;8.45;;;23.30;77.70;;;;;;5035378;28;20384;-85
2021/08/10 05:38:59;;;;;;;8.85;7.47;;;23.50;77.50;;;;;;5035170;28;20053;-84
2021/08/10 05:41:25;;;;;;;8.68;6.90;;;23.50;77.20;;;;;;5052705;28;20056;-82
2021/08/10 05:43:51;;;;;;;7.47;6.32;;;23.60;77.00;;;;;;5052627;28;20467;-85
2021/08/10 05:46:25;;;;;;;7.05;6.03;;;23.60;76.90;;;;;;5035082;28;20040;-85
2021/08/10 05:48:51;;;;;;;10.15;5.80;;;23.70;76.60;;;;;;5053368;28;20117;-85
2021/08/10 05:51:17;;;;;;;7.35;6.05;;;23.80;76.10;;;;;;5034777;28;20468;-84
2021/08/10 05:53:42;;;;;;;7.43;6.30;;;23.90;75.90;;;;;;5053146;28;20025;-85
2021/08/10 05:56:08;;;;;;;8.63;6.68;;;24.00;75.90;;;;;;5035764;28;20494;-86
2021/08/10 05:58:34;;;;;;;7.68;5.82;;;24.10;75.70;;;;;;5036407;28;20029;-85
2021/08/10 06:00:59;;;;;;;6.60;5.90;;;24.20;75.10;;;;;;5054853;28;20037;-87
2021/08/10 06:03:25;;;;;;;8.55;6.30;;;24.30;74.70;;;;;;5037325;28;20025;-83
2021/08/10 06:05:51;;;;;;;6.68;5.95;;;24.50;74.50;;;;;;5040535;28;20025;-86
2021/08/10 06:08:16;;;;;;;35.45;28.40;;;24.60;74.20;;;;;;5056779;28;20068;-89
2021/08/10 06:10:42;;;;;;;27.90;23.25;;;24.70;73.80;;;;;;5038953;28;20475;-90
2021/08/10 06:13:08;;;;;;;14.68;11.93;;;24.80;73.10;;;;;;5039145;28;20071;-85
2021/08/10 06:15:34;;;;;;;10.98;8.93;;;24.80;72.60;;;;;;5057243;28;20444;-86
2021/08/10 06:17:59;;;;;;;9.07;7.95;;;24.80;72.20;;;;;;5038068;28;20029;-87
2021/08/10 06:20:25;;;;;;;10.27;8.18;;;24.80;72.20;;;;;;5056554;28;20036;-86
2021/08/10 06:22:50;;;;;;;10.93;8.68;;;24.90;71.70;;;;;;5056721;28;20021;-86
2021/08/10 06:25:16;;;;;;;8.82;7.78;;;24.80;71.30;;;;;;5038463;28;20074;-86
2021/08/10 06:27:42;;;;;;;7.88;7.07;;;24.90;71.30;;;;;;5056307;28;20063;-86
2021/08/10 06:30:09;;;;;;;8.75;6.80;;;24.90;71.30;;;;;;5038082;28;20040;-84
2021/08/10 06:32:35;;;;;;;7.22;6.20;;;25.00;71.10;;;;;;5055936;28;20017;-86
2021/08/10 06:35:02;;;;;;;8.93;6.53;;;25.20;71.10;;;;;;5056412;28;20032;-89
2021/08/10 06:37:27;;;;;;;8.98;7.25;;;25.20;70.90;;;;;;5056062;28;20029;-86
2021/08/10 06:39:53;;;;;;;6.95;6.25;;;25.40;70.50;;;;;;5056089;28;20065;-86
2021/08/10 06:42:20;;;;;;;6.97;6.00;;;25.40;70.00;;;;;;5056185;28;20068;-85
2021/08/10 06:44:46;;;;;;;6.80;5.90;;;25.60;70.10;;;;;;5037867;28;20033;-84
2021/08/10 06:47:12;;;;;;;175.77;116.15;;;25.70;69.70;;;;;;5055907;28;20029;-84
2021/08/10 06:49:38;;;;;;;121.05;86.25;;;25.80;69.20;;;;;;5055344;28;20056;-84
2021/08/10 06:52:08;;;;;;;50.35;36.65;;;26.00;69.00;;;;;;5055768;28;20061;-87
2021/08/10 06:54:34;;;;;;;27.15;20.75;;;26.10;68.70;;;;;;5038249;28;20024;-84
2021/08/10 06:57:05;;;;;;;17.98;13.02;;;26.20;68.50;;;;;;5055669;28;20033;-83
2021/08/10 06:59:31;;;;;;;11.98;9.70;;;26.20;68.10;;;;;;5037845;28;20048;-84
2021/08/10 07:01:57;;;;;;;8.90;7.40;;;26.30;68.20;;;;;;5055401;28;20159;-84
2021/08/10 07:04:22;;;;;;;7.72;6.10;;;26.40;68.50;;;;;;5055309;28;20040;-83
2021/08/10 07:06:48;;;;;;;6.18;5.22;;;26.50;67.70;;;;;;5054904;28;20025;-84
2021/08/10 07:09:17;;;;;;;7.32;5.38;;;26.50;67.40;;;;;;5037836;28;20049;-83
2021/08/10 07:11:43;;;;;;;5.72;4.60;;;26.70;67.40;;;;;;5037773;28;20028;-82
2021/08/10 07:14:13;;;;;;;6.70;5.45;;;26.90;67.20;;;;;;5037027;28;20102;-83
2021/08/10 07:16:40;;;;;;;6.20;5.40;;;27.00;66.60;;;;;;5037150;28;20025;-86
2021/08/10 07:19:05;;;;;;;6.45;5.80;;;27.10;65.80;;;;;;5036560;28;20033;-86
2021/08/10 07:21:31;;;;;;;20.77;15.27;;;27.20;65.20;;;;;;5055649;28;20037;-89
2021/08/10 07:23:57;;;;;;;12.32;8.77;;;27.30;65.10;;;;;;5042247;28;20033;-84
2021/08/10 07:26:23;;;;;;;8.82;6.78;;;27.40;64.20;;;;;;5056206;28;20045;-84
2021/08/10 07:28:49;;;;;;;6.28;5.32;;;27.50;64.20;;;;;;5037015;28;20421;-84
2021/08/10 07:31:14;;;;;;;5.68;4.75;;;27.60;64.20;;;;;;5036987;28;20082;-84
2021/08/10 07:33:40;;;;;;;6.28;4.45;;;27.70;64.10;;;;;;5036715;28;20021;-84
2021/08/10 07:36:06;;;;;;;4.90;4.13;;;27.90;63.90;;;;;;5055038;28;20345;-84
2021/08/10 07:38:32;;;;;;;5.10;4.00;;;28.00;63.60;;;;;;5054437;28;20048;-83
2021/08/10 07:40:58;;;;;;;5.65;4.78;;;28.10;63.10;;;;;;5054356;28;20116;-83
2021/08/10 07:43:23;;;;;;;4.53;4.13;;;28.20;63.00;;;;;;5054732;28;20112;-83
2021/08/10 07:45:49;;;;;;;4.38;3.92;;;28.30;62.90;;;;;;5036651;28;20064;-84
2021/08/10 07:48:16;;;;;;;5.20;4.57;;;28.40;62.60;;;;;;5054653;28;20078;-84
2021/08/10 07:50:42;;;;;;;5.00;4.47;;;28.50;61.90;;;;;;5054538;28;20098;-84
2021/08/10 07:53:07;;;;;;;5.10;4.32;;;28.50;61.80;;;;;;5054666;28;20033;-88
2021/08/10 07:55:35;;;;;;;14.40;12.88;;;28.60;61.90;;;;;;5055126;28;20032;-85
2021/08/10 07:58:01;;;;;;;6.95;6.25;;;28.60;61.40;;;;;;5053743;28;20029;-86
2021/08/10 08:00:26;;;;;;;7.07;5.72;;;28.70;61.10;;;;;;5036171;28;20029;-86
2021/08/10 08:02:52;;;;;;;9.60;5.85;;;28.70;60.60;;;;;;5054453;28;20448;-86
2021/08/10 08:05:18;;;;;;;6.43;5.80;;;28.80;60.90;;;;;;5054206;28;20539;-87
2021/08/10 08:07:43;;;;;;;6.03;5.43;;;29.00;61.90;;;;;;5053807;28;20094;-84
2021/08/10 08:10:10;;;;;;;18.48;16.30;;;29.30;62.20;;;;;;5054276;28;20024;-85
2021/08/10 08:12:36;;;;;;;21.13;19.02;;;29.70;62.70;;;;;;5054220;28;20055;-83
2021/08/10 08:15:02;;;;;;;12.02;10.82;;;30.20;62.60;;;;;;5035455;28;20073;-84
2021/08/10 08:17:28;;;;;;;8.50;7.60;;;30.50;61.60;;;;;;5036281;28;20418;-86
2021/08/10 08:19:54;;;;;;;7.50;6.28;;;30.80;61.60;;;;;;5036353;28;20040;-85
2021/08/10 08:22:19;;;;;;;6.30;5.70;;;31.20;61.60;;;;;;5036131;28;20033;-85
2021/08/10 08:24:45;;;;;;;7.13;4.85;;;31.60;61.00;;;;;;5035761;28;20368;-86
2021/08/10 08:27:11;;;;;;;7.53;4.72;;;32.00;60.50;;;;;;5053793;28;20025;-85
2021/08/10 08:29:37;;;;;;;5.35;4.70;;;32.40;59.00;;;;;;5034768;28;20202;-86
2021/08/10 08:32:02;;;;;;;5.25;4.50;;;32.70;58.40;;;;;;5035308;28;20055;-86
2021/08/10 08:34:28;;;;;;;4.90;4.40;;;33.10;57.30;;;;;;5035407;28;20032;-87
2021/08/10 08:36:54;;;;;;;4.50;4.10;;;33.20;56.50;;;;;;5035456;28;20112;-85
2021/08/10 08:39:19;;;;;;;5.68;4.50;;;33.50;55.80;;;;;;5053249;28;20033;-88
2021/08/10 08:41:46;;;;;;;5.97;4.22;;;33.70;55.30;;;;;;5053304;28;20064;-86
2021/08/10 08:44:15;;;;;;;4.93;4.00;;;33.90;54.90;;;;;;5035061;28;20486;-86
2021/08/10 08:46:41;;;;;;;6.38;3.72;;;34.20;54.10;;;;;;5052490;28;20421;-86
2021/08/10 08:49:08;;;;;;;6.65;4.57;;;34.40;54.20;;;;;;5053137;28;20066;-88
2021/08/10 08:51:35;;;;;;;5.13;4.55;;;34.50;53.00;;;;;;5035293;28;20491;-87
2021/08/10 08:54:02;;;;;;;4.78;4.38;;;34.60;52.20;;;;;;5035092;28;20459;-85
2021/08/10 08:56:28;;;;;;;62.72;56.08;;;34.70;51.40;;;;;;5035710;28;20029;-89
2021/08/10 08:58:55;;;;;;;48.42;43.53;;;34.60;50.70;;;;;;5035166;28;20043;-87
2021/08/10 09:01:22;;;;;;;23.80;21.50;;;34.70;51.20;;;;;;5035021;28;20071;-86
2021/08/10 09:03:47;;;;;;;12.68;11.40;;;35.00;51.30;;;;;;5034685;28;20025;-85
2021/08/10 09:06:13;;;;;;;7.40;6.60;;;35.20;50.80;;;;;;5053026;28;20021;-85
2021/08/10 09:08:40;;;;;;;6.50;4.97;;;35.50;50.10;;;;;;5052499;28;20022;-85
2021/08/10 09:11:09;;;;;;;5.45;4.50;;;35.70;49.80;;;;;;5052782;28;20028;-84
2021/08/10 09:13:39;;;;;;;4.47;4.07;;;35.90;49.20;;;;;;5034506;28;20049;-85
2021/08/10 09:16:07;;;;;;;4.35;3.95;;;36.00;48.60;;;;;;5052662;28;20032;-85
2021/08/10 09:18:36;;;;;;;4.38;3.97;;;36.00;47.90;;;;;;5052883;28;20028;-84
2021/08/10 09:21:08;;;;;;;5.38;4.00;;;36.00;47.60;;;;;;5034794;28;20037;-84
2021/08/10 09:23:51;;;;;;;5.32;3.90;;;36.10;47.60;;;;;;5050468;28;20383;-85
2021/08/10 09:26:31;;;;;;;5.35;4.10;;;36.40;46.00;;;;;;5033584;28;20090;-86
2021/08/10 09:28:59;;;;;;;5.35;3.63;;;36.50;47.00;;;;;;5030831;28;20021;-86
2021/08/10 09:32:00;;;;;;;4.85;4.10;;;36.60;47.00;;;;;;5052544;28;20029;-83
2021/08/10 09:34:30;;;;;;;4.07;3.67;;;36.80;43.10;;;;;;5021531;28;20033;-84
2021/08/10 09:36:57;;;;;;;4.35;3.95;;;36.90;46.50;;;;;;5041783;28;20021;-84
2021/08/10 09:39:30;;;;;;;4.50;4.10;;;37.10;46.40;;;;;;5066221;28;20103;-85
2021/08/10 09:42:08;;;;;;;5.28;4.10;;;37.30;44.40;;;;;;5041931;28;20033;-86
2021/08/10 09:44:36;;;;;;;4.30;3.78;;;37.40;44.90;;;;;;5054140;28;20017;-86
2021/08/10 09:47:02;;;;;;;7.28;4.30;;;37.50;45.40;;;;;;5056272;28;20074;-85
2021/08/10 09:49:46;;;;;;;4.47;4.07;;;37.60;45.00;;;;;;5038532;28;20127;-86
2021/08/10 09:52:45;;;;;;;6.22;4.30;;;37.80;41.90;;;;;;5036086;28;20033;-84
2021/08/10 09:55:14;;;;;;;4.88;4.38;;;37.60;42.80;;;;;;4999781;28;20033;-83
2021/08/10 09:57:41;;;;;;;6.72;4.78;;;37.70;44.70;;;;;;5056172;28;20163;-86
2021/08/10 10:00:08;;;;;;;5.35;4.30;;;37.70;43.90;;;;;;5038316;28;20383;-85
2021/08/10 10:02:33;;;;;;;5.50;4.35;;;37.80;43.80;;;;;;5038208;28;20033;-85
2021/08/10 10:04:59;;;;;;;4.75;4.28;;;37.80;43.50;;;;;;5038933;28;20047;-84
2021/08/10 10:07:25;;;;;;;4.10;3.70;;;37.90;43.30;;;;;;5056000;28;20025;-85
2021/08/10 10:09:52;;;;;;;4.88;4.32;;;37.90;43.50;;;;;;5055968;28;20447;-85
2021/08/10 10:12:20;;;;;;;6.13;3.60;;;38.10;43.10;;;;;;5056083;28;20032;-84
2021/08/10 10:14:47;;;;;;;5.00;4.10;;;38.20;43.10;;;;;;5037970;28;20045;-84
2021/08/10 10:17:13;;;;;;;4.38;3.78;;;38.40;42.80;;;;;;5038070;28;20024;-85
2021/08/10 10:19:41;;;;;;;4.20;3.72;;;38.40;42.50;;;;;;5056294;28;20455;-87
2021/08/10 10:22:14;;;;;;;4.10;3.60;;;38.40;42.50;;;;;;5019333;28;20042;-85
2021/08/10 10:24:48;;;;;;;4.25;3.85;;;38.60;43.00;;;;;;5037999;28;20029;-86
2021/08/10 10:27:16;;;;;;;3.72;3.33;;;39.00;42.60;;;;;;5038003;28;20383;-84
2021/08/10 10:29:46;;;;;;;4.73;3.93;;;39.20;42.50;;;;;;5037880;28;20017;-85
2021/08/10 10:32:18;;;;;;;3.88;3.20;;;39.30;41.90;;;;;;5055843;28;20531;-87
2021/08/10 10:34:44;;;;;;;4.85;3.90;;;39.40;41.30;;;;;;5038206;28;20471;-86
2021/08/10 10:37:11;;;;;;;4.22;3.83;;;39.50;42.50;;;;;;5038189;28;20028;-89
2021/08/10 10:39:41;;;;;;;6.22;5.57;;;39.60;41.60;;;;;;5055863;28;20021;-87
2021/08/10 10:42:12;;;;;;;33.03;29.85;;;39.60;41.60;;;;;;5037879;28;20487;-88
2021/08/10 10:44:47;;;;;;;18.05;16.35;;;39.90;41.40;;;;;;5037882;28;20171;-86
2021/08/10 10:47:20;;;;;;;8.02;7.22;;;40.00;40.50;;;;;;5047420;28;20060;-86
2021/08/10 10:49:46;;;;;;;5.60;5.10;;;40.20;40.40;;;;;;5035473;28;20082;-87
2021/08/10 10:52:16;;;;;;;5.90;4.30;;;40.10;40.40;;;;;;5034135;28;20032;-86
2021/08/10 10:54:48;;;;;;;4.85;3.60;;;40.10;40.20;;;;;;5028251;28;20114;-86
2021/08/10 10:57:29;;;;;;;4.07;3.67;;;40.00;39.60;;;;;;5052878;28;20029;-86
2021/08/10 11:00:19;;;;;;;5.68;3.60;;;39.90;38.70;;;;;;5039304;28;20589;-85
2021/08/10 11:03:09;;;;;;;4.03;3.50;;;39.80;39.00;;;;;;5034772;28;20037;-86
2021/08/10 11:05:41;;;;;;;5.70;3.67;;;39.80;38.90;;;;;;5034346;28;20036;-86
2021/08/10 11:08:38;;;;;;;3.95;3.60;;;40.00;39.90;;;;;;5013990;28;20033;-91
2021/08/10 11:11:06;;;;;;;4.95;4.15;;;40.10;38.90;;;;;;5021491;28;20082;-89
2021/08/10 11:13:37;;;;;;;3.97;3.40;;;40.00;39.80;;;;;;5032455;28;20094;-86
2021/08/10 11:16:03;;;;;;;3.70;3.30;;;40.10;39.20;;;;;;5032598;28;20520;-85
2021/08/10 11:18:29;;;;;;;4.43;3.42;;;40.10;39.70;;;;;;5033631;28;20387;-86
2021/08/10 11:21:15;;;;;;;4.15;3.53;;;40.10;39.40;;;;;;5033900;28;20033;-85
2021/08/10 11:23:41;;;;;;;4.30;3.63;;;40.20;38.50;;;;;;5014853;28;20037;-86
2021/08/10 11:26:09;;;;;;;4.38;3.35;;;40.30;39.30;;;;;;5049326;28;20021;-86
2021/08/10 11:28:50;;;;;;;6.15;3.63;;;40.40;39.00;;;;;;5031434;28;20033;-86
2021/08/10 11:31:38;;;;;;;4.90;3.30;;;40.40;38.50;;;;;;5030268;28;20039;-85
2021/08/10 11:34:24;;;;;;;3.80;3.40;;;40.50;37.90;;;;;;5035473;28;20384;-87
2021/08/10 11:37:18;;;;;;;5.07;3.47;;;40.40;38.40;;;;;;5033934;28;20024;-85
2021/08/10 11:40:05;;;;;;;4.97;3.92;;;40.20;37.70;;;;;;5054061;28;20021;-85
2021/08/10 11:42:31;;;;;;;4.22;3.70;;;40.20;37.90;;;;;;5036543;28;20033;-88
2021/08/10 11:44:57;;;;;;;3.97;3.40;;;40.20;38.70;;;;;;5036297;28;20387;-88
2021/08/10 11:47:23;;;;;;;235.80;213.88;;;40.40;38.60;;;;;;5036815;28;20040;-87
2021/08/10 11:49:54;;;;;;;57.60;52.63;;;40.40;38.10;;;;;;5042498;28;20122;-91
2021/08/10 11:52:19;;;;;;;20.30;18.50;;;40.40;38.30;;;;;;5037614;28;20029;-86
2021/08/10 11:54:58;;;;;;;9.70;8.75;;;40.40;38.20;;;;;;5054192;28;20074;-87
2021/08/10 11:57:27;;;;;;;6.47;5.88;;;40.60;37.50;;;;;;5033953;28;20056;-86
2021/08/10 12:00:12;;;;;;;;;;;40.80;38.20;;;;;;5033180;28;20082;-86
2021/08/10 12:02:44;;;;;;;5.43;3.92;;;40.70;36.80;;;;;;5029941;28;19917;-86
2021/08/10 12:05:11;;;;;;;4.13;3.72;;;40.90;37.80;;;;;;5048183;28;20025;-88
2021/08/10 12:07:49;;;;;;;4.75;3.90;;;41.00;37.80;;;;;;5033873;28;20118;-88
2021/08/10 12:10:35;;;;;;;5.03;3.60;;;41.10;36.90;;;;;;5028400;28;20071;-87
2021/08/10 12:13:19;;;;;;;4.47;3.50;;;41.00;36.50;;;;;;5049366;28;20033;-86
2021/08/10 12:15:45;;;;;;;4.13;3.72;;;41.10;36.70;;;;;;5050816;28;20104;-92
2021/08/10 12:18:14;;;;;;;17.45;15.82;;;40.90;37.20;;;;;;5033779;28;20112;-87
2021/08/10 12:20:40;;;;;;;9.00;8.10;;;40.90;37.50;;;;;;5033564;28;20091;-87
2021/08/10 12:23:08;;;;;;;6.15;4.65;;;40.90;37.50;;;;;;5051849;28;20025;-86
2021/08/10 12:25:34;;;;;;;;;;;41.20;37.10;;;;;;5017752;28;20029;-86
2021/08/10 12:28:11;;;;;;;4.38;3.60;;;40.90;36.60;;;;;;5051498;28;19905;-87
2021/08/10 12:30:39;;;;;;;3.80;3.50;;;41.00;37.50;;;;;;5033257;28;20124;-86
2021/08/10 12:33:14;;;;;;;4.40;3.20;;;41.10;37.10;;;;;;5033452;28;20025;-84
2021/08/10 12:35:58;;;;;;;3.50;3.20;;;41.20;37.00;;;;;;5033427;28;20025;-84
2021/08/10 12:38:27;;;;;;;4.78;3.60;;;41.30;35.90;;;;;;5033167;28;20032;-85
2021/08/10 12:40:54;;;;;;;4.70;3.38;;;41.40;37.10;;;;;;5033732;28;20435;-86
2021/08/10 12:43:21;;;;;;;3.65;3.35;;;41.70;37.00;;;;;;5033250;28;20521;-85
2021/08/10 12:45:47;;;;;;;3.80;3.42;;;41.80;36.60;;;;;;5051213;28;20112;-85
2021/08/10 12:48:37;;;;;;;5.82;3.85;;;41.70;36.50;;;;;;5051379;28;20028;-84
2021/08/10 12:51:05;;;;;;;4.75;3.30;;;41.60;36.00;;;;;;5044478;28;20041;-86
2021/08/10 12:53:33;;;;;;;33.22;29.85;;;41.40;36.60;;;;;;5035494;28;20064;-86
2021/08/10 12:56:02;;;;;;;10.63;9.63;;;41.30;37.00;;;;;;5035490;28;20052;-85